createdAt,value
2023-02-19T00:00:35.441Z,99901.94
2023-02-19T00:03:38.645Z,99892.84
2023-02-19T00:06:42.330Z,99868.25
2023-02-19T00:09:44.815Z,99897.28
2023-02-19T00:12:47.242Z,99899.72
2023-02-19T00:15:49.832Z,99895.19
2023-02-19T00:18:52.902Z,99914.03
2023-02-19T00:21:55.370Z,99922.69
2023-02-19T00:24:57.816Z,99922.47
2023-02-19T00:28:00.163Z,99924.56
2023-02-19T00:31:35.835Z,99926.00
2023-02-19T00:34:38.387Z,99927.16
2023-02-19T00:37:40.886Z,99904.06
2023-02-19T00:40:43.340Z,99919.91
2023-02-19T00:44:07.076Z,99919.91
2023-02-19T00:47:09.623Z,99908.88
2023-02-19T00:50:14.496Z,99920.00
2023-02-19T00:53:18.463Z,99922.03
2023-02-19T00:56:21.373Z,99920.63
2023-02-19T00:59:23.710Z,99912.22
2023-02-19T01:02:26.932Z,99923.00
2023-02-19T01:05:29.353Z,99928.00
2023-02-19T01:08:32.818Z,99934.94
2023-02-19T01:11:36.559Z,99932.81
2023-02-19T01:14:39.576Z,99914.88
2023-02-19T01:17:41.911Z,99921.66
2023-02-19T01:20:45.438Z,99917.94
2023-02-19T01:23:48.812Z,99912.13
2023-02-19T01:26:51.241Z,99926.88
2023-02-19T01:29:53.845Z,99930.00
2023-02-19T01:32:56.166Z,99922.91
2023-02-19T01:35:58.613Z,99902.19
2023-02-19T01:39:05.178Z,99916.91
2023-02-19T01:42:14.863Z,99927.03
2023-02-19T01:45:24.952Z,99921.22
2023-02-19T01:48:35.428Z,99921.28
2023-02-19T01:51:41.980Z,99912.44
2023-02-19T01:54:45.040Z,99912.41
2023-02-19T01:57:49.466Z,99919.19
2023-02-19T02:00:52.864Z,99905.91
2023-02-19T02:03:55.389Z,99909.53
2023-02-19T02:06:58.336Z,99912.69
2023-02-19T02:10:19.404Z,99877.09
2023-02-19T02:13:22.036Z,99911.41
2023-02-19T02:16:26.191Z,99913.03
2023-02-19T02:19:33.176Z,99919.78
2023-02-19T02:23:10.311Z,99918.28
2023-02-19T02:26:27.642Z,99915.84
2023-02-19T02:29:30.014Z,99922.03
2023-02-19T02:32:53.564Z,99909.44
2023-02-19T02:36:24.865Z,99914.69
2023-02-19T02:39:28.694Z,99914.25
2023-02-19T02:42:31.156Z,99904.94
2023-02-19T02:45:44.653Z,99890.59
2023-02-19T02:48:58.775Z,99894.53
2023-02-19T02:52:21.977Z,99898.28
2023-02-19T02:55:25.884Z,99894.78
2023-02-19T02:58:29.018Z,99883.28
2023-02-19T03:01:55.886Z,99877.84
2023-02-19T03:05:31.098Z,99876.50
2023-02-19T03:08:44.455Z,99883.69
2023-02-19T03:12:08.934Z,99864.81
2023-02-19T03:15:30.016Z,99876.00
2023-02-19T03:18:52.632Z,99850.75
2023-02-19T03:22:01.567Z,99867.47
2023-02-19T03:25:32.406Z,99863.28
2023-02-19T03:28:57.619Z,99863.38
2023-02-19T03:32:04.691Z,99867.25
2023-02-19T03:35:11.050Z,99854.69
2023-02-19T03:38:25.738Z,99855.41
2023-02-19T03:41:34.578Z,99855.50
2023-02-19T03:44:53.231Z,99830.19
2023-02-19T03:48:19.070Z,99863.72
2023-02-19T03:51:39.291Z,99856.72
2023-02-19T03:55:06.381Z,99868.84
2023-02-19T03:58:23.062Z,99871.84
2023-02-19T04:01:43.128Z,99870.28
2023-02-19T04:04:51.030Z,99868.88
2023-02-19T04:07:57.611Z,99866.59
2023-02-19T04:11:07.018Z,99855.06
2023-02-19T04:14:16.900Z,99859.19
2023-02-19T04:17:38.247Z,99869.94
2023-02-19T04:20:43.748Z,99859.19
2023-02-19T04:23:46.467Z,99860.78
2023-02-19T04:26:48.994Z,99862.84
2023-02-19T04:29:51.547Z,99863.06
2023-02-19T04:32:54.024Z,99847.41
2023-02-19T04:35:56.484Z,99875.22
2023-02-19T04:38:59.073Z,99876.25
2023-02-19T04:42:01.437Z,99874.31
2023-02-19T04:45:04.002Z,99866.00
2023-02-19T04:48:06.543Z,99850.13
2023-02-19T04:51:09.748Z,99870.19
2023-02-19T04:54:12.250Z,99871.53
2023-02-19T04:57:14.555Z,99869.28
2023-02-19T05:00:16.978Z,99876.69
2023-02-19T05:03:19.518Z,99873.66
2023-02-19T05:06:22.015Z,99873.81
2023-02-19T05:09:24.509Z,99837.16
2023-02-19T05:12:27.479Z,99881.78
2023-02-19T05:15:29.922Z,99877.22
2023-02-19T05:18:33.419Z,99887.16
2023-02-19T05:21:35.831Z,99877.75
2023-02-19T05:24:38.148Z,99876.03
2023-02-19T05:27:40.458Z,99883.00
2023-02-19T05:30:43.192Z,99876.50
2023-02-19T05:33:50.282Z,99885.72
2023-02-19T05:36:52.618Z,99882.00
2023-02-19T05:39:55.017Z,99890.84
2023-02-19T05:42:57.351Z,99880.84
2023-02-19T05:45:59.887Z,99884.19
2023-02-19T05:49:03.448Z,99897.47
2023-02-19T05:52:05.930Z,99898.31
2023-02-19T05:55:08.571Z,99796.41
2023-02-19T05:58:10.963Z,99897.47
2023-02-19T06:01:24.605Z,99901.53
2023-02-19T06:04:27.055Z,99909.16
2023-02-19T06:07:29.568Z,99905.94
2023-02-19T06:10:32.170Z,99898.81
2023-02-19T06:13:35.045Z,99902.38
2023-02-19T06:16:37.438Z,99915.25
2023-02-19T06:19:39.930Z,99916.34
2023-02-19T06:22:42.228Z,99922.84
2023-02-19T06:25:44.530Z,99918.06
2023-02-19T06:28:48.588Z,99926.63
2023-02-19T06:31:50.889Z,99932.22
2023-02-19T06:34:53.202Z,99936.59
2023-02-19T06:37:55.696Z,99937.78
2023-02-19T06:41:02.322Z,99950.16
2023-02-19T06:44:04.735Z,99943.22
2023-02-19T06:47:07.176Z,99940.91
2023-02-19T06:50:09.605Z,99933.72
2023-02-19T06:53:11.978Z,99939.41
2023-02-19T06:56:26.641Z,99933.34
2023-02-19T06:59:28.968Z,99931.78
2023-02-19T07:02:31.253Z,99938.88
2023-02-19T07:05:33.804Z,99939.84
2023-02-19T07:08:36.144Z,99953.69
2023-02-19T07:11:40.085Z,99958.59
2023-02-19T07:14:42.618Z,99964.25
2023-02-19T07:17:45.071Z,99961.31
2023-02-19T07:20:47.897Z,99970.28
2023-02-19T07:23:50.634Z,99970.03
2023-02-19T07:26:53.178Z,99971.41
2023-02-19T07:29:55.544Z,99970.84
2023-02-19T07:32:58.187Z,99974.59
2023-02-19T07:36:00.600Z,99984.25
2023-02-19T07:39:02.980Z,99978.31
2023-02-19T07:42:05.834Z,99978.69
2023-02-19T07:45:08.473Z,99979.16
2023-02-19T07:48:10.789Z,99984.69
2023-02-19T07:51:18.981Z,99984.97
2023-02-19T07:54:21.378Z,99979.38
2023-02-19T07:57:23.813Z,99985.50
2023-02-19T08:00:26.792Z,99983.41
2023-02-19T08:03:29.208Z,99987.06
2023-02-19T08:06:31.611Z,99969.03
2023-02-19T08:09:34.435Z,99986.47
2023-02-19T08:12:55.453Z,100001.72
2023-02-19T08:16:18.249Z,100002.97
2023-02-19T08:19:22.791Z,99997.53
2023-02-19T08:22:25.131Z,99990.63
2023-02-19T08:25:27.459Z,100003.34
2023-02-19T08:28:30.715Z,100004.19
2023-02-19T08:31:34.269Z,100008.50
2023-02-19T08:34:37.185Z,100018.34
2023-02-19T08:37:39.778Z,100022.25
2023-02-19T08:40:42.629Z,100025.28
2023-02-19T08:43:44.966Z,100010.75
2023-02-19T08:46:47.422Z,100024.31
2023-02-19T08:49:53.469Z,100033.69
2023-02-19T08:52:57.537Z,100038.38
2023-02-19T08:56:00.846Z,100038.94
2023-02-19T08:59:03.578Z,100035.28
2023-02-19T09:02:06.195Z,100047.47
2023-02-19T09:05:09.400Z,100043.44
2023-02-19T09:08:12.116Z,100032.47
2023-02-19T09:11:15.682Z,100000.66
2023-02-19T09:14:18.785Z,100048.41
2023-02-19T09:17:21.511Z,100050.34
2023-02-19T09:20:24.391Z,100042.84
2023-02-19T09:23:27.071Z,100050.72
2023-02-19T09:26:29.662Z,100061.50
2023-02-19T09:29:34.632Z,100048.00
2023-02-19T09:32:37.086Z,100055.94
2023-02-19T09:35:40.717Z,100055.19
2023-02-19T09:38:43.623Z,100071.47
2023-02-19T09:42:00.064Z,100071.56
2023-02-19T09:45:02.850Z,100068.59
2023-02-19T09:48:06.419Z,100061.88
2023-02-19T09:51:10.480Z,100073.72
2023-02-19T09:54:39.441Z,100078.09
2023-02-19T09:57:42.372Z,100073.91
2023-02-19T10:00:49.499Z,100081.97
2023-02-19T10:03:52.241Z,100088.41
2023-02-19T10:06:59.139Z,100094.41
2023-02-19T10:10:17.961Z,100082.31
2023-02-19T10:13:23.417Z,100087.22
2023-02-19T10:16:27.676Z,100098.81
2023-02-19T10:19:30.017Z,100089.19
2023-02-19T10:22:34.121Z,100096.16
2023-02-19T10:25:36.634Z,100104.47
2023-02-19T10:28:39.146Z,100093.19
2023-02-19T10:31:41.893Z,100088.53
2023-02-19T10:34:44.813Z,100104.47
2023-02-19T10:37:49.416Z,100111.06
2023-02-19T10:40:59.102Z,100117.50
2023-02-19T10:44:19.584Z,100112.44
2023-02-19T10:47:24.706Z,100117.22
2023-02-19T10:50:32.172Z,100121.84
2023-02-19T10:54:16.027Z,100119.22
2023-02-19T10:57:30.587Z,100115.25
2023-02-19T11:00:32.856Z,100118.66
2023-02-19T11:03:35.244Z,100110.41
2023-02-19T11:06:37.657Z,100108.66
2023-02-19T11:09:45.590Z,100126.81
2023-02-19T11:12:50.196Z,100117.06
2023-02-19T11:15:54.080Z,100118.97
2023-02-19T11:18:57.457Z,100132.66
2023-02-19T11:22:00.568Z,100125.13
2023-02-19T11:25:25.880Z,100123.88
2023-02-19T11:28:36.833Z,100126.19
2023-02-19T11:31:39.428Z,100142.38
2023-02-19T11:34:42.128Z,100143.53
2023-02-19T11:37:59.351Z,100123.91
2023-02-19T11:41:20.333Z,100141.00
2023-02-19T11:44:54.286Z,100143.53
2023-02-19T11:48:19.489Z,100146.00
2023-02-19T11:51:52.740Z,100160.47
2023-02-19T11:55:02.238Z,100161.13
2023-02-19T11:58:33.968Z,100161.41
2023-02-19T12:01:42.161Z,100174.44
2023-02-19T12:05:27.074Z,100179.31
2023-02-19T12:08:29.678Z,100172.28
2023-02-19T12:11:44.990Z,100180.72
2023-02-19T12:15:00.495Z,100184.75
2023-02-19T12:18:32.234Z,100187.38
2023-02-19T12:21:55.844Z,100187.00
2023-02-19T12:25:17.015Z,100163.44
2023-02-19T12:28:38.471Z,100191.03
2023-02-19T12:31:56.749Z,100201.84
2023-02-19T12:35:16.811Z,100193.88
2023-02-19T12:38:33.674Z,100201.19
2023-02-19T12:41:45.659Z,100204.28
2023-02-19T12:44:53.896Z,100207.91
2023-02-19T12:48:17.828Z,100215.09
2023-02-19T12:51:37.215Z,100215.53
2023-02-19T12:54:42.125Z,100215.94
2023-02-19T12:57:44.575Z,100225.31
2023-02-19T13:00:51.278Z,100214.13
2023-02-19T13:04:15.322Z,100218.28
2023-02-19T13:07:32.534Z,100220.75
2023-02-19T13:10:41.834Z,100227.47
2023-02-19T13:13:48.953Z,100236.78
2023-02-19T13:16:55.291Z,100238.13
2023-02-19T13:20:05.623Z,100228.09
2023-02-19T13:23:27.936Z,100233.09
2023-02-19T13:27:08.714Z,100231.97
2023-02-19T13:30:52.522Z,100227.38
2023-02-19T13:34:05.976Z,100236.72
2023-02-19T13:37:09.200Z,100230.19
2023-02-19T13:40:28.442Z,100229.31
2023-02-19T13:43:42.999Z,100240.19
2023-02-19T13:46:46.524Z,100232.38
2023-02-19T13:49:52.325Z,100237.56
2023-02-19T13:52:56.410Z,100238.38
2023-02-19T13:55:59.021Z,100241.16
2023-02-19T13:59:24.405Z,100239.13
2023-02-19T14:02:33.295Z,100144.22
2023-02-19T14:05:58.543Z,100254.09
2023-02-19T14:09:01.080Z,100263.94
2023-02-19T14:12:06.364Z,100259.72
2023-02-19T14:15:44.436Z,100263.25
2023-02-19T14:18:47.402Z,100254.81
2023-02-19T14:21:49.876Z,100267.38
2023-02-19T14:24:54.319Z,100266.84
2023-02-19T14:28:18.022Z,100277.28
2023-02-19T14:31:33.430Z,100289.88
2023-02-19T14:34:36.240Z,100291.91
2023-02-19T14:37:38.650Z,100291.69
2023-02-19T14:40:43.685Z,100291.16
2023-02-19T14:43:48.138Z,100304.31
2023-02-19T14:46:55.015Z,100298.91
2023-02-19T14:50:14.294Z,100314.53
2023-02-19T14:53:17.587Z,100314.41
2023-02-19T14:56:23.973Z,100316.22
2023-02-19T14:59:30.956Z,100326.22
2023-02-19T15:02:33.605Z,100332.13
2023-02-19T15:05:37.575Z,100323.88
2023-02-19T15:08:45.152Z,100320.03
2023-02-19T15:11:47.747Z,100328.84
2023-02-19T15:14:52.435Z,100323.34
2023-02-19T15:17:55.284Z,100346.34
2023-02-19T15:21:03.417Z,100331.56
2023-02-19T15:24:06.595Z,100349.63
2023-02-19T15:27:20.122Z,100355.16
2023-02-19T15:30:29.619Z,100359.38
2023-02-19T15:33:32.109Z,100373.31
2023-02-19T15:36:35.115Z,100374.50
2023-02-19T15:39:48.212Z,100377.19
2023-02-19T15:42:50.678Z,100383.81
2023-02-19T15:45:57.706Z,100393.19
2023-02-19T15:49:10.006Z,100404.84
2023-02-19T15:52:20.134Z,100406.19
2023-02-19T15:55:32.360Z,100407.25
2023-02-19T15:58:44.489Z,100418.69
2023-02-19T16:01:47.180Z,100421.00
2023-02-19T16:04:49.941Z,100419.56
2023-02-19T16:08:18.425Z,100424.38
2023-02-19T16:11:37.705Z,100415.50
2023-02-19T16:14:40.230Z,100432.47
2023-02-19T16:17:44.377Z,100429.16
2023-02-19T16:20:48.053Z,100453.75
2023-02-19T16:23:54.943Z,100465.94
2023-02-19T16:26:58.225Z,100460.06
2023-02-19T16:30:08.210Z,100454.91
2023-02-19T16:33:37.237Z,100476.81
2023-02-19T16:36:42.628Z,100471.31
2023-02-19T16:39:44.871Z,100491.22
2023-02-19T16:42:50.031Z,100490.38
2023-02-19T16:45:52.927Z,100493.13
2023-02-19T16:48:55.541Z,100504.78
2023-02-19T16:52:04.290Z,100512.00
2023-02-19T16:55:14.254Z,100533.91
2023-02-19T16:58:16.919Z,100523.63
2023-02-19T17:01:19.536Z,100524.41
2023-02-19T17:04:22.362Z,100525.69
2023-02-19T17:07:28.176Z,100532.25
2023-02-19T17:10:32.085Z,100539.50
2023-02-19T17:13:35.214Z,100539.69
2023-02-19T17:16:42.090Z,100558.75
2023-02-19T17:19:44.456Z,100550.03
2023-02-19T17:22:46.919Z,100557.69
2023-02-19T17:25:49.308Z,100556.66
2023-02-19T17:28:52.033Z,100553.56
2023-02-19T17:31:55.352Z,100551.69
2023-02-19T17:35:02.190Z,100557.09
2023-02-19T17:38:11.551Z,100550.06
2023-02-19T17:41:15.822Z,100556.66
2023-02-19T17:44:22.206Z,100562.47
2023-02-19T17:47:27.363Z,100567.41
2023-02-19T17:50:33.917Z,100561.59
2023-02-19T17:53:38.595Z,100568.84
2023-02-19T17:56:44.690Z,100570.69
2023-02-19T17:59:51.553Z,100590.94
2023-02-19T18:02:55.979Z,100582.25
2023-02-19T18:05:58.785Z,100575.00
2023-02-19T18:09:01.038Z,100592.13
2023-02-19T18:12:03.459Z,100586.81
2023-02-19T18:15:07.619Z,100585.94
2023-02-19T18:18:09.947Z,100590.50
2023-02-19T18:21:15.132Z,100597.09
2023-02-19T18:24:17.484Z,100597.47
2023-02-19T18:27:20.726Z,100593.59
2023-02-19T18:30:23.972Z,100597.31
2023-02-19T18:33:26.559Z,100608.47
2023-02-19T18:36:29.010Z,100612.38
2023-02-19T18:39:31.387Z,100603.28
2023-02-19T18:42:33.751Z,100619.75
2023-02-19T18:45:37.424Z,100613.13
2023-02-19T18:48:39.784Z,100624.47
2023-02-19T18:51:43.550Z,100645.25
2023-02-19T18:54:45.925Z,100629.22
2023-02-19T18:57:48.838Z,100631.56
2023-02-19T19:00:51.216Z,100629.19
2023-02-19T19:03:53.524Z,100633.44
2023-02-19T19:06:56.008Z,100623.94
2023-02-19T19:09:58.425Z,100624.56
2023-02-19T19:13:00.766Z,100605.13
2023-02-19T19:16:03.240Z,100604.78
2023-02-19T19:19:05.705Z,100612.78
2023-02-19T19:22:08.169Z,100606.63
2023-02-19T19:25:10.795Z,100609.69
2023-02-19T19:28:13.068Z,100592.56
2023-02-19T19:31:17.017Z,100601.84
2023-02-19T19:34:19.390Z,100583.47
2023-02-19T19:37:21.772Z,100593.34
2023-02-19T19:40:24.308Z,100587.13
2023-02-19T19:43:28.175Z,100569.38
2023-02-19T19:46:30.532Z,100587.13
2023-02-19T19:49:33.562Z,100588.78
2023-02-19T19:52:36.026Z,100580.94
2023-02-19T19:55:38.475Z,100584.28
2023-02-19T19:58:40.891Z,100594.19
2023-02-19T20:01:50.168Z,100587.31
2023-02-19T20:04:52.771Z,100582.63
2023-02-19T20:07:55.562Z,100585.25
2023-02-19T20:10:57.944Z,100589.00
2023-02-19T20:14:00.506Z,100584.22
2023-02-19T20:17:03.320Z,100594.06
2023-02-19T20:20:06.969Z,100595.53
2023-02-19T20:23:09.705Z,100599.44
2023-02-19T20:26:12.567Z,100587.06
2023-02-19T20:29:14.916Z,100588.75
2023-02-19T20:32:20.961Z,100583.09
2023-02-19T20:35:26.487Z,100589.06
2023-02-19T20:38:28.937Z,100586.81
2023-02-19T20:41:31.397Z,100596.94
2023-02-19T20:44:34.264Z,100582.06
2023-02-19T20:47:37.789Z,100581.47
2023-02-19T20:50:40.163Z,100609.28
2023-02-19T20:53:43.474Z,100596.63
2023-02-19T20:56:50.284Z,100593.66
2023-02-19T20:59:53.169Z,100596.22
2023-02-19T21:02:55.537Z,100580.53
2023-02-19T21:05:57.826Z,100596.47
2023-02-19T21:09:00.207Z,100583.13
2023-02-19T21:12:02.533Z,100593.59
2023-02-19T21:15:05.978Z,100593.47
2023-02-19T21:18:08.747Z,100601.06
2023-02-19T21:21:11.620Z,100599.59
2023-02-19T21:24:15.338Z,100593.56
2023-02-19T21:27:18.578Z,100608.47
2023-02-19T21:30:21.336Z,100602.28
2023-02-19T21:33:23.930Z,100601.28
2023-02-19T21:36:26.453Z,100577.75
2023-02-19T21:39:30.596Z,100598.38
2023-02-19T21:42:33.136Z,100614.03
2023-02-19T21:45:35.593Z,100605.50
2023-02-19T21:48:37.950Z,100604.78
2023-02-19T21:51:42.227Z,100602.81
2023-02-19T21:54:44.564Z,100606.00
2023-02-19T21:57:46.910Z,100623.41
2023-02-19T22:00:49.275Z,100620.22
2023-02-19T22:03:52.030Z,100610.97
2023-02-19T22:06:57.742Z,100611.53
2023-02-19T22:10:00.120Z,100613.53
2023-02-19T22:13:02.462Z,100617.97
2023-02-19T22:16:04.879Z,100623.72
2023-02-19T22:19:07.263Z,100627.41
2023-02-19T22:22:09.631Z,100625.22
2023-02-19T22:25:12.143Z,100613.00
2023-02-19T22:28:14.610Z,100622.50
2023-02-19T22:31:18.475Z,100620.72
2023-02-19T22:34:21.053Z,100615.06
2023-02-19T22:37:23.510Z,100633.69
2023-02-19T22:40:25.823Z,100622.47
2023-02-19T22:43:28.087Z,100615.44
2023-02-19T22:46:31.371Z,100622.63
2023-02-19T22:49:33.758Z,100626.91
2023-02-19T22:52:36.172Z,100613.44
2023-02-19T22:55:38.672Z,100602.50
2023-02-19T22:58:41.420Z,100621.97
2023-02-19T23:01:43.787Z,100619.94
2023-02-19T23:04:46.145Z,100608.91
2023-02-19T23:07:48.454Z,100608.16
2023-02-19T23:10:51.240Z,100622.63
2023-02-19T23:13:53.707Z,100611.16
2023-02-19T23:16:56.083Z,100613.00
2023-02-19T23:19:58.425Z,100602.66
2023-02-19T23:23:00.952Z,100610.03
2023-02-19T23:26:04.743Z,100611.22
2023-02-19T23:29:06.992Z,100606.09
2023-02-19T23:32:09.471Z,100602.00
2023-02-19T23:35:11.791Z,100605.69
2023-02-19T23:38:14.197Z,100570.19
2023-02-19T23:41:17.635Z,100601.59
2023-02-19T23:44:21.194Z,100604.78
2023-02-19T23:47:25.934Z,100611.88
2023-02-19T23:50:28.636Z,100607.19
2023-02-19T23:53:31.042Z,100609.81
2023-02-19T23:56:33.928Z,100607.41
2023-02-19T23:59:36.294Z,100602.81
